Alma, Arkansas
Current Conditions -  °F | °C
As of 11:53 AM on Tuesday 21 Oct 2014 (Local Time) from KFSM Reporting Station
Clear Clear  
Wind Chill: 73°   Ceiling: Unl
Heat Index: 73°   Visibility: 10mi
Dew Point: 60°   Wind: 3mph
Humidity: 64%   Direction: NA
Pressure: 30.12"   Gusts: NA
Location:  35.48°N, 94.22°W
Report Text: KFSM 211653Z VRB03KT 10SM CLR 23/16 A3012 RMK AO2 SLP198 T02280156
Loading
Personal Weather Stations






























Interactive Weather Map
Tropical Storm Tracking
New forecast layout! Learn more

10-Day Weather Forecast

Advertisements
Track Severe Weather on mobile